sensor_id;sensor_type;location;lat;lon;timestamp;P1;durP1;ratioP1;P2;durP2;ratioP2
36797;SDS011;22748;8.426;99.512;2023-03-14T00:00:35;31.73;;;21.58;;
36797;SDS011;22748;8.426;99.512;2023-03-14T00:03:18;37.72;;;22.98;;
36797;SDS011;22748;8.426;99.512;2023-03-14T00:05:49;38.88;;;23.63;;
36797;SDS011;22748;8.426;99.512;2023-03-14T00:08:21;37.15;;;23.48;;
36797;SDS011;22748;8.426;99.512;2023-03-14T00:10:53;41.13;;;27.13;;
36797;SDS011;22748;8.426;99.512;2023-03-14T00:13:24;40.88;;;26.23;;
36797;SDS011;22748;8.426;99.512;2023-03-14T00:15:55;39.63;;;23.13;;
36797;SDS011;22748;8.426;99.512;2023-03-14T00:18:41;33.60;;;22.13;;
36797;SDS011;22748;8.426;99.512;2023-03-14T00:21:13;50.58;;;39.00;;
36797;SDS011;22748;8.426;99.512;2023-03-14T00:23:49;33.65;;;25.50;;
36797;SDS011;22748;8.426;99.512;2023-03-14T00:26:31;30.52;;;23.88;;
36797;SDS011;22748;8.426;99.512;2023-03-14T00:29:07;38.50;;;24.92;;
36797;SDS011;22748;8.426;99.512;2023-03-14T00:31:38;37.75;;;27.90;;
36797;SDS011;22748;8.426;99.512;2023-03-14T00:34:12;42.60;;;30.17;;
36797;SDS011;22748;8.426;99.512;2023-03-14T00:36:44;42.63;;;30.85;;
36797;SDS011;22748;8.426;99.512;2023-03-14T00:39:27;41.13;;;29.52;;
36797;SDS011;22748;8.426;99.512;2023-03-14T00:41:58;43.25;;;29.48;;
36797;SDS011;22748;8.426;99.512;2023-03-14T00:44:29;62.95;;;43.08;;
36797;SDS011;22748;8.426;99.512;2023-03-14T00:46:59;54.92;;;37.13;;
36797;SDS011;22748;8.426;99.512;2023-03-14T00:49:32;48.17;;;32.83;;
36797;SDS011;22748;8.426;99.512;2023-03-14T00:52:03;46.17;;;32.33;;
36797;SDS011;22748;8.426;99.512;2023-03-14T00:54:33;50.58;;;31.67;;
36797;SDS011;22748;8.426;99.512;2023-03-14T00:57:03;50.15;;;31.75;;
36797;SDS011;22748;8.426;99.512;2023-03-14T00:59:34;58.53;;;39.08;;
36797;SDS011;22748;8.426;99.512;2023-03-14T01:02:04;62.03;;;40.00;;
36797;SDS011;22748;8.426;99.512;2023-03-14T01:04:37;54.67;;;34.17;;
36797;SDS011;22748;8.426;99.512;2023-03-14T01:07:10;44.13;;;29.38;;
36797;SDS011;22748;8.426;99.512;2023-03-14T01:12:11;52.53;;;30.92;;
36797;SDS011;22748;8.426;99.512;2023-03-14T01:14:42;54.22;;;31.95;;
36797;SDS011;22748;8.426;99.512;2023-03-14T01:17:14;72.43;;;48.55;;
36797;SDS011;22748;8.426;99.512;2023-03-14T01:22:15;57.97;;;34.22;;
36797;SDS011;22748;8.426;99.512;2023-03-14T01:24:48;55.88;;;33.97;;
36797;SDS011;22748;8.426;99.512;2023-03-14T01:27:19;53.88;;;33.08;;
36797;SDS011;22748;8.426;99.512;2023-03-14T01:29:51;47.65;;;30.77;;
36797;SDS011;22748;8.426;99.512;2023-03-14T01:34:54;57.77;;;40.00;;
36797;SDS011;22748;8.426;99.512;2023-03-14T01:37:25;91.88;;;59.00;;
36797;SDS011;22748;8.426;99.512;2023-03-14T01:39:56;155.27;;;95.15;;
36797;SDS011;22748;8.426;99.512;2023-03-14T01:42:28;127.05;;;82.78;;
36797;SDS011;22748;8.426;99.512;2023-03-14T01:47:29;71.57;;;44.33;;
36797;SDS011;22748;8.426;99.512;2023-03-14T01:50:01;62.42;;;39.90;;
36797;SDS011;22748;8.426;99.512;2023-03-14T01:52:38;68.60;;;39.50;;
36797;SDS011;22748;8.426;99.512;2023-03-14T01:55:12;63.40;;;38.38;;
36797;SDS011;22748;8.426;99.512;2023-03-14T01:57:45;56.42;;;33.08;;
36797;SDS011;22748;8.426;99.512;2023-03-14T02:00:19;52.03;;;33.85;;
36797;SDS011;22748;8.426;99.512;2023-03-14T02:02:53;51.70;;;33.17;;
36797;SDS011;22748;8.426;99.512;2023-03-14T02:05:32;49.22;;;33.97;;
36797;SDS011;22748;8.426;99.512;2023-03-14T02:08:06;42.33;;;26.20;;
36797;SDS011;22748;8.426;99.512;2023-03-14T02:10:39;40.00;;;25.98;;
36797;SDS011;22748;8.426;99.512;2023-03-14T02:13:11;34.15;;;22.52;;
36797;SDS011;22748;8.426;99.512;2023-03-14T02:15:44;33.33;;;22.35;;
36797;SDS011;22748;8.426;99.512;2023-03-14T02:18:15;31.90;;;20.63;;
36797;SDS011;22748;8.426;99.512;2023-03-14T02:20:50;31.30;;;23.25;;
36797;SDS011;22748;8.426;99.512;2023-03-14T02:23:27;36.30;;;23.58;;
36797;SDS011;22748;8.426;99.512;2023-03-14T02:26:08;33.95;;;22.58;;
36797;SDS011;22748;8.426;99.512;2023-03-14T02:28:46;33.47;;;22.90;;
36797;SDS011;22748;8.426;99.512;2023-03-14T02:31:29;36.97;;;23.08;;
36797;SDS011;22748;8.426;99.512;2023-03-14T02:33:59;36.58;;;22.65;;
36797;SDS011;22748;8.426;99.512;2023-03-14T02:36:32;35.65;;;23.08;;
36797;SDS011;22748;8.426;99.512;2023-03-14T02:39:06;34.42;;;22.00;;
36797;SDS011;22748;8.426;99.512;2023-03-14T02:41:43;30.65;;;21.65;;
36797;SDS011;22748;8.426;99.512;2023-03-14T02:44:18;27.10;;;20.65;;
36797;SDS011;22748;8.426;99.512;2023-03-14T02:46:49;35.33;;;22.48;;
36797;SDS011;22748;8.426;99.512;2023-03-14T02:49:20;33.60;;;20.92;;
36797;SDS011;22748;8.426;99.512;2023-03-14T02:57:48;31.63;;;19.95;;
36797;SDS011;22748;8.426;99.512;2023-03-14T03:03:05;25.63;;;19.90;;
36797;SDS011;22748;8.426;99.512;2023-03-14T03:08:13;32.35;;;19.75;;
36797;SDS011;22748;8.426;99.512;2023-03-14T03:10:43;27.15;;;19.63;;
36797;SDS011;22748;8.426;99.512;2023-03-14T03:13:14;30.23;;;19.35;;
36797;SDS011;22748;8.426;99.512;2023-03-14T03:15:47;26.05;;;18.00;;
36797;SDS011;22748;8.426;99.512;2023-03-14T03:18:18;27.48;;;18.58;;
36797;SDS011;22748;8.426;99.512;2023-03-14T03:20:49;26.55;;;18.27;;
36797;SDS011;22748;8.426;99.512;2023-03-14T03:23:29;22.95;;;18.23;;
36797;SDS011;22748;8.426;99.512;2023-03-14T03:26:42;29.83;;;18.92;;
36797;SDS011;22748;8.426;99.512;2023-03-14T03:29:14;26.67;;;17.87;;
36797;SDS011;22748;8.426;99.512;2023-03-14T03:31:48;26.13;;;18.42;;
36797;SDS011;22748;8.426;99.512;2023-03-14T03:34:18;27.30;;;19.10;;
36797;SDS011;22748;8.426;99.512;2023-03-14T03:36:48;27.37;;;18.70;;
36797;SDS011;22748;8.426;99.512;2023-03-14T03:39:20;30.20;;;23.65;;
36797;SDS011;22748;8.426;99.512;2023-03-14T03:41:52;30.10;;;20.90;;
36797;SDS011;22748;8.426;99.512;2023-03-14T03:44:24;25.30;;;18.15;;
36797;SDS011;22748;8.426;99.512;2023-03-14T03:46:57;29.73;;;19.55;;
36797;SDS011;22748;8.426;99.512;2023-03-14T03:49:28;28.17;;;18.50;;
36797;SDS011;22748;8.426;99.512;2023-03-14T03:52:00;29.08;;;20.00;;
36797;SDS011;22748;8.426;99.512;2023-03-14T03:54:31;25.63;;;19.33;;
36797;SDS011;22748;8.426;99.512;2023-03-14T03:59:32;26.30;;;18.63;;
36797;SDS011;22748;8.426;99.512;2023-03-14T04:02:05;27.15;;;17.50;;
36797;SDS011;22748;8.426;99.512;2023-03-14T04:04:36;26.42;;;18.90;;
36797;SDS011;22748;8.426;99.512;2023-03-14T04:09:37;24.25;;;18.30;;
36797;SDS011;22748;8.426;99.512;2023-03-14T04:12:09;25.20;;;17.90;;
36797;SDS011;22748;8.426;99.512;2023-03-14T04:14:40;27.75;;;18.02;;
36797;SDS011;22748;8.426;99.512;2023-03-14T04:17:13;26.77;;;18.52;;
36797;SDS011;22748;8.426;99.512;2023-03-14T04:19:45;28.30;;;19.42;;
36797;SDS011;22748;8.426;99.512;2023-03-14T04:22:20;29.98;;;17.35;;
36797;SDS011;22748;8.426;99.512;2023-03-14T04:24:51;54.88;;;27.83;;
36797;SDS011;22748;8.426;99.512;2023-03-14T04:27:21;35.53;;;20.10;;
36797;SDS011;22748;8.426;99.512;2023-03-14T04:29:52;27.95;;;18.15;;
36797;SDS011;22748;8.426;99.512;2023-03-14T04:32:25;37.15;;;18.13;;
36797;SDS011;22748;8.426;99.512;2023-03-14T04:34:56;23.83;;;17.60;;
36797;SDS011;22748;8.426;99.512;2023-03-14T04:37:27;29.73;;;18.70;;
36797;SDS011;22748;8.426;99.512;2023-03-14T04:42:28;23.58;;;16.90;;
36797;SDS011;22748;8.426;99.512;2023-03-14T04:45:01;32.22;;;18.50;;
36797;SDS011;22748;8.426;99.512;2023-03-14T04:47:34;37.60;;;17.73;;
36797;SDS011;22748;8.426;99.512;2023-03-14T04:50:04;28.30;;;18.20;;
36797;SDS011;22748;8.426;99.512;2023-03-14T04:52:36;28.50;;;17.67;;
36797;SDS011;22748;8.426;99.512;2023-03-14T04:55:06;25.75;;;17.23;;
36797;SDS011;22748;8.426;99.512;2023-03-14T04:57:37;26.33;;;17.17;;
36797;SDS011;22748;8.426;99.512;2023-03-14T05:00:09;27.20;;;16.48;;
36797;SDS011;22748;8.426;99.512;2023-03-14T05:02:43;23.13;;;17.63;;
36797;SDS011;22748;8.426;99.512;2023-03-14T05:05:14;23.00;;;16.85;;
36797;SDS011;22748;8.426;99.512;2023-03-14T05:10:14;25.70;;;17.52;;
36797;SDS011;22748;8.426;99.512;2023-03-14T05:12:47;25.77;;;16.35;;
36797;SDS011;22748;8.426;99.512;2023-03-14T05:15:19;25.60;;;17.83;;
36797;SDS011;22748;8.426;99.512;2023-03-14T05:17:51;23.48;;;16.60;;
36797;SDS011;22748;8.426;99.512;2023-03-14T05:20:22;31.13;;;18.83;;
36797;SDS011;22748;8.426;99.512;2023-03-14T05:22:53;26.00;;;16.80;;
36797;SDS011;22748;8.426;99.512;2023-03-14T05:25:24;28.73;;;20.65;;
36797;SDS011;22748;8.426;99.512;2023-03-14T05:32:59;27.40;;;17.45;;
36797;SDS011;22748;8.426;99.512;2023-03-14T05:35:29;29.33;;;18.45;;
36797;SDS011;22748;8.426;99.512;2023-03-14T05:38:00;23.80;;;16.90;;
36797;SDS011;22748;8.426;99.512;2023-03-14T05:40:31;26.42;;;17.60;;
36797;SDS011;22748;8.426;99.512;2023-03-14T05:43:10;28.08;;;16.90;;
36797;SDS011;22748;8.426;99.512;2023-03-14T05:45:43;27.48;;;16.98;;
36797;SDS011;22748;8.426;99.512;2023-03-14T05:48:17;24.17;;;16.80;;
36797;SDS011;22748;8.426;99.512;2023-03-14T05:50:53;21.10;;;15.90;;
36797;SDS011;22748;8.426;99.512;2023-03-14T05:53:26;26.50;;;17.00;;
36797;SDS011;22748;8.426;99.512;2023-03-14T05:55:58;23.88;;;15.90;;
36797;SDS011;22748;8.426;99.512;2023-03-14T05:58:28;29.30;;;17.20;;
36797;SDS011;22748;8.426;99.512;2023-03-14T06:00:58;26.38;;;16.33;;
36797;SDS011;22748;8.426;99.512;2023-03-14T06:03:34;26.92;;;16.15;;
36797;SDS011;22748;8.426;99.512;2023-03-14T06:06:04;22.60;;;15.35;;
36797;SDS011;22748;8.426;99.512;2023-03-14T06:08:35;24.77;;;15.75;;
36797;SDS011;22748;8.426;99.512;2023-03-14T06:11:06;24.67;;;15.55;;
36797;SDS011;22748;8.426;99.512;2023-03-14T06:13:37;21.55;;;16.50;;
36797;SDS011;22748;8.426;99.512;2023-03-14T06:16:09;19.65;;;15.68;;
36797;SDS011;22748;8.426;99.512;2023-03-14T06:18:41;22.70;;;16.00;;
36797;SDS011;22748;8.426;99.512;2023-03-14T06:21:14;24.63;;;16.25;;
36797;SDS011;22748;8.426;99.512;2023-03-14T06:23:44;24.98;;;15.98;;
36797;SDS011;22748;8.426;99.512;2023-03-14T06:26:15;23.27;;;16.20;;
36797;SDS011;22748;8.426;99.512;2023-03-14T06:28:46;24.60;;;16.35;;
36797;SDS011;22748;8.426;99.512;2023-03-14T06:31:17;22.83;;;15.23;;
36797;SDS011;22748;8.426;99.512;2023-03-14T06:36:19;21.63;;;17.17;;
36797;SDS011;22748;8.426;99.512;2023-03-14T06:38:49;20.63;;;15.10;;
36797;SDS011;22748;8.426;99.512;2023-03-14T06:41:22;22.42;;;15.93;;
36797;SDS011;22748;8.426;99.512;2023-03-14T06:44:00;22.30;;;16.08;;
36797;SDS011;22748;8.426;99.512;2023-03-14T06:46:33;22.13;;;15.57;;
36797;SDS011;22748;8.426;99.512;2023-03-14T06:49:09;27.40;;;16.25;;
36797;SDS011;22748;8.426;99.512;2023-03-14T06:51:41;25.00;;;15.07;;
36797;SDS011;22748;8.426;99.512;2023-03-14T06:54:13;22.50;;;14.77;;
36797;SDS011;22748;8.426;99.512;2023-03-14T06:56:44;23.27;;;15.77;;
36797;SDS011;22748;8.426;99.512;2023-03-14T06:59:14;23.05;;;14.55;;
36797;SDS011;22748;8.426;99.512;2023-03-14T07:01:45;21.27;;;15.37;;
36797;SDS011;22748;8.426;99.512;2023-03-14T07:04:18;21.90;;;14.25;;
36797;SDS011;22748;8.426;99.512;2023-03-14T07:06:50;20.75;;;14.45;;
36797;SDS011;22748;8.426;99.512;2023-03-14T07:09:22;21.00;;;15.00;;
36797;SDS011;22748;8.426;99.512;2023-03-14T07:11:52;28.45;;;15.57;;
36797;SDS011;22748;8.426;99.512;2023-03-14T07:14:23;22.95;;;14.30;;
36797;SDS011;22748;8.426;99.512;2023-03-14T07:16:54;23.83;;;14.07;;
36797;SDS011;22748;8.426;99.512;2023-03-14T07:19:30;21.17;;;14.55;;
36797;SDS011;22748;8.426;99.512;2023-03-14T07:22:01;20.23;;;14.15;;
36797;SDS011;22748;8.426;99.512;2023-03-14T07:27:18;23.55;;;14.73;;
36797;SDS011;22748;8.426;99.512;2023-03-14T07:29:49;23.42;;;13.68;;
36797;SDS011;22748;8.426;99.512;2023-03-14T07:32:23;23.40;;;14.18;;
36797;SDS011;22748;8.426;99.512;2023-03-14T07:34:56;21.23;;;14.10;;
36797;SDS011;22748;8.426;99.512;2023-03-14T07:37:28;23.52;;;14.18;;
36797;SDS011;22748;8.426;99.512;2023-03-14T07:39:59;23.38;;;13.93;;
36797;SDS011;22748;8.426;99.512;2023-03-14T07:42:31;21.48;;;13.82;;
36797;SDS011;22748;8.426;99.512;2023-03-14T07:45:03;19.27;;;13.83;;
36797;SDS011;22748;8.426;99.512;2023-03-14T07:47:34;17.52;;;13.57;;
36797;SDS011;22748;8.426;99.512;2023-03-14T07:50:08;19.02;;;13.57;;
36797;SDS011;22748;8.426;99.512;2023-03-14T07:52:40;17.25;;;14.10;;
36797;SDS011;22748;8.426;99.512;2023-03-14T07:55:11;17.83;;;13.43;;
36797;SDS011;22748;8.426;99.512;2023-03-14T07:57:44;21.85;;;13.75;;
36797;SDS011;22748;8.426;99.512;2023-03-14T08:00:16;19.55;;;13.73;;
36797;SDS011;22748;8.426;99.512;2023-03-14T08:02:47;23.95;;;14.77;;
36797;SDS011;22748;8.426;99.512;2023-03-14T08:05:22;19.30;;;13.82;;
36797;SDS011;22748;8.426;99.512;2023-03-14T08:07:52;22.85;;;13.57;;
36797;SDS011;22748;8.426;99.512;2023-03-14T08:10:23;19.27;;;13.65;;
36797;SDS011;22748;8.426;99.512;2023-03-14T08:12:54;23.40;;;13.35;;
36797;SDS011;22748;8.426;99.512;2023-03-14T08:15:25;26.20;;;15.40;;
36797;SDS011;22748;8.426;99.512;2023-03-14T08:17:57;19.48;;;13.85;;
36797;SDS011;22748;8.426;99.512;2023-03-14T08:20:29;22.15;;;13.60;;
36797;SDS011;22748;8.426;99.512;2023-03-14T08:23:05;20.17;;;13.95;;
36797;SDS011;22748;8.426;99.512;2023-03-14T08:25:37;18.05;;;14.05;;
36797;SDS011;22748;8.426;99.512;2023-03-14T08:28:07;23.42;;;13.88;;
36797;SDS011;22748;8.426;99.512;2023-03-14T08:30:37;18.63;;;13.80;;
36797;SDS011;22748;8.426;99.512;2023-03-14T08:33:09;23.65;;;14.70;;
36797;SDS011;22748;8.426;99.512;2023-03-14T08:35:43;20.90;;;13.50;;
36797;SDS011;22748;8.426;99.512;2023-03-14T08:38:15;23.67;;;14.05;;
36797;SDS011;22748;8.426;99.512;2023-03-14T08:40:45;20.98;;;14.45;;
36797;SDS011;22748;8.426;99.512;2023-03-14T08:43:16;20.92;;;13.52;;
36797;SDS011;22748;8.426;99.512;2023-03-14T08:45:46;21.48;;;13.52;;
36797;SDS011;22748;8.426;99.512;2023-03-14T08:48:18;21.38;;;13.63;;
36797;SDS011;22748;8.426;99.512;2023-03-14T08:50:50;20.80;;;13.80;;
36797;SDS011;22748;8.426;99.512;2023-03-14T08:53:22;21.80;;;14.15;;
36797;SDS011;22748;8.426;99.512;2023-03-14T08:55:53;22.92;;;14.50;;
36797;SDS011;22748;8.426;99.512;2023-03-14T08:58:25;22.73;;;14.48;;
36797;SDS011;22748;8.426;99.512;2023-03-14T09:00:56;22.20;;;15.02;;
36797;SDS011;22748;8.426;99.512;2023-03-14T09:03:28;22.85;;;14.82;;
36797;SDS011;22748;8.426;99.512;2023-03-14T09:06:03;22.90;;;14.57;;
36797;SDS011;22748;8.426;99.512;2023-03-14T09:08:35;23.85;;;14.88;;
36797;SDS011;22748;8.426;99.512;2023-03-14T09:11:07;21.42;;;14.35;;
36797;SDS011;22748;8.426;99.512;2023-03-14T09:13:39;21.10;;;14.80;;
36797;SDS011;22748;8.426;99.512;2023-03-14T09:16:10;21.52;;;15.30;;
36797;SDS011;22748;8.426;99.512;2023-03-14T09:18:42;23.20;;;14.38;;
36797;SDS011;22748;8.426;99.512;2023-03-14T09:21:15;22.33;;;15.35;;
36797;SDS011;22748;8.426;99.512;2023-03-14T09:23:48;28.38;;;15.80;;
36797;SDS011;22748;8.426;99.512;2023-03-14T09:26:19;19.58;;;14.50;;
36797;SDS011;22748;8.426;99.512;2023-03-14T09:28:49;20.77;;;14.93;;
36797;SDS011;22748;8.426;99.512;2023-03-14T09:31:20;21.25;;;15.43;;
36797;SDS011;22748;8.426;99.512;2023-03-14T09:33:51;19.95;;;14.48;;
36797;SDS011;22748;8.426;99.512;2023-03-14T09:36:28;20.33;;;14.30;;
36797;SDS011;22748;8.426;99.512;2023-03-14T09:38:59;23.70;;;14.75;;
36797;SDS011;22748;8.426;99.512;2023-03-14T09:41:31;21.65;;;14.82;;
36797;SDS011;22748;8.426;99.512;2023-03-14T09:44:04;24.58;;;14.73;;
36797;SDS011;22748;8.426;99.512;2023-03-14T09:46:39;18.35;;;14.15;;
36797;SDS011;22748;8.426;99.512;2023-03-14T09:49:19;24.83;;;15.75;;
36797;SDS011;22748;8.426;99.512;2023-03-14T09:51:55;25.90;;;15.73;;
36797;SDS011;22748;8.426;99.512;2023-03-14T09:54:32;20.92;;;15.32;;
36797;SDS011;22748;8.426;99.512;2023-03-14T09:57:06;19.05;;;15.18;;
36797;SDS011;22748;8.426;99.512;2023-03-14T09:59:42;23.35;;;14.85;;
36797;SDS011;22748;8.426;99.512;2023-03-14T10:02:15;21.33;;;14.90;;
36797;SDS011;22748;8.426;99.512;2023-03-14T10:04:48;21.58;;;15.23;;
36797;SDS011;22748;8.426;99.512;2023-03-14T10:07:25;29.48;;;15.52;;
36797;SDS011;22748;8.426;99.512;2023-03-14T10:09:58;23.13;;;15.15;;
36797;SDS011;22748;8.426;99.512;2023-03-14T10:12:33;23.83;;;15.55;;
36797;SDS011;22748;8.426;99.512;2023-03-14T10:15:05;22.88;;;16.27;;
36797;SDS011;22748;8.426;99.512;2023-03-14T10:17:39;21.30;;;15.15;;
36797;SDS011;22748;8.426;99.512;2023-03-14T10:20:26;26.13;;;16.40;;
36797;SDS011;22748;8.426;99.512;2023-03-14T10:23:03;24.15;;;16.35;;
36797;SDS011;22748;8.426;99.512;2023-03-14T10:25:36;25.75;;;16.42;;
36797;SDS011;22748;8.426;99.512;2023-03-14T10:28:11;24.90;;;16.13;;
36797;SDS011;22748;8.426;99.512;2023-03-14T10:30:54;25.20;;;16.40;;
36797;SDS011;22748;8.426;99.512;2023-03-14T10:33:28;21.70;;;16.25;;
36797;SDS011;22748;8.426;99.512;2023-03-14T10:36:02;24.35;;;15.82;;
36797;SDS011;22748;8.426;99.512;2023-03-14T10:38:36;26.95;;;16.08;;
36797;SDS011;22748;8.426;99.512;2023-03-14T10:41:14;21.15;;;15.15;;
36797;SDS011;22748;8.426;99.512;2023-03-14T10:43:47;21.25;;;15.10;;
36797;SDS011;22748;8.426;99.512;2023-03-14T10:46:21;26.52;;;16.25;;
36797;SDS011;22748;8.426;99.512;2023-03-14T10:48:56;25.05;;;17.17;;
36797;SDS011;22748;8.426;99.512;2023-03-14T10:51:27;27.48;;;16.48;;
36797;SDS011;22748;8.426;99.512;2023-03-14T10:54:02;24.65;;;16.45;;
36797;SDS011;22748;8.426;99.512;2023-03-14T10:56:41;26.60;;;16.65;;
36797;SDS011;22748;8.426;99.512;2023-03-14T10:59:12;24.92;;;16.05;;
36797;SDS011;22748;8.426;99.512;2023-03-14T11:01:45;22.83;;;16.08;;
36797;SDS011;22748;8.426;99.512;2023-03-14T11:04:25;25.85;;;16.35;;
36797;SDS011;22748;8.426;99.512;2023-03-14T11:07:08;24.85;;;16.92;;
36797;SDS011;22748;8.426;99.512;2023-03-14T11:09:48;27.15;;;16.17;;
36797;SDS011;22748;8.426;99.512;2023-03-14T11:12:30;25.80;;;16.85;;
36797;SDS011;22748;8.426;99.512;2023-03-14T11:15:11;23.15;;;16.30;;
36797;SDS011;22748;8.426;99.512;2023-03-14T11:17:50;25.65;;;16.63;;
36797;SDS011;22748;8.426;99.512;2023-03-14T11:20:37;25.30;;;16.38;;
36797;SDS011;22748;8.426;99.512;2023-03-14T11:23:12;22.92;;;16.20;;
36797;SDS011;22748;8.426;99.512;2023-03-14T11:25:51;25.05;;;16.35;;
36797;SDS011;22748;8.426;99.512;2023-03-14T11:28:27;22.63;;;15.82;;
36797;SDS011;22748;8.426;99.512;2023-03-14T11:31:07;26.95;;;17.20;;
36797;SDS011;22748;8.426;99.512;2023-03-14T11:33:47;21.55;;;15.70;;
36797;SDS011;22748;8.426;99.512;2023-03-14T11:36:26;24.98;;;17.50;;
36797;SDS011;22748;8.426;99.512;2023-03-14T11:39:01;26.13;;;16.83;;
36797;SDS011;22748;8.426;99.512;2023-03-14T11:41:35;25.67;;;16.02;;
36797;SDS011;22748;8.426;99.512;2023-03-14T11:44:10;21.42;;;15.45;;
36797;SDS011;22748;8.426;99.512;2023-03-14T11:46:48;26.23;;;15.30;;
36797;SDS011;22748;8.426;99.512;2023-03-14T11:49:26;25.27;;;16.33;;
36797;SDS011;22748;8.426;99.512;2023-03-14T11:52:08;27.45;;;15.32;;
36797;SDS011;22748;8.426;99.512;2023-03-14T11:54:49;27.40;;;16.23;;
36797;SDS011;22748;8.426;99.512;2023-03-14T11:57:27;27.73;;;16.23;;
36797;SDS011;22748;8.426;99.512;2023-03-14T12:00:00;28.20;;;16.83;;
36797;SDS011;22748;8.426;99.512;2023-03-14T12:02:35;25.67;;;16.23;;
36797;SDS011;22748;8.426;99.512;2023-03-14T12:05:34;26.02;;;15.43;;
36797;SDS011;22748;8.426;99.512;2023-03-14T12:11:09;24.40;;;15.48;;
36797;SDS011;22748;8.426;99.512;2023-03-14T12:14:03;32.42;;;16.83;;
36797;SDS011;22748;8.426;99.512;2023-03-14T12:16:47;25.08;;;15.57;;
36797;SDS011;22748;8.426;99.512;2023-03-14T12:19:26;26.70;;;15.80;;
36797;SDS011;22748;8.426;99.512;2023-03-14T12:22:08;27.83;;;16.25;;
36797;SDS011;22748;8.426;99.512;2023-03-14T12:25:00;29.13;;;15.43;;
36797;SDS011;22748;8.426;99.512;2023-03-14T12:27:43;30.10;;;16.92;;
36797;SDS011;22748;8.426;99.512;2023-03-14T12:30:34;30.80;;;17.60;;
36797;SDS011;22748;8.426;99.512;2023-03-14T12:36:09;44.67;;;26.02;;
36797;SDS011;22748;8.426;99.512;2023-03-14T12:38:51;37.97;;;24.75;;
36797;SDS011;22748;8.426;99.512;2023-03-14T12:41:35;38.00;;;22.63;;
36797;SDS011;22748;8.426;99.512;2023-03-14T12:50:25;31.65;;;18.75;;
36797;SDS011;22748;8.426;99.512;2023-03-14T12:56:03;29.05;;;16.77;;
36797;SDS011;22748;8.426;99.512;2023-03-14T12:58:47;30.20;;;17.25;;
36797;SDS011;22748;8.426;99.512;2023-03-14T13:01:45;26.35;;;17.30;;
36797;SDS011;22748;8.426;99.512;2023-03-14T13:04:28;28.77;;;17.10;;
36797;SDS011;22748;8.426;99.512;2023-03-14T13:07:02;28.07;;;17.00;;
36797;SDS011;22748;8.426;99.512;2023-03-14T13:09:48;27.58;;;16.90;;
36797;SDS011;22748;8.426;99.512;2023-03-14T13:12:39;33.35;;;18.27;;
36797;SDS011;22748;8.426;99.512;2023-03-14T13:15:16;31.27;;;17.70;;
36797;SDS011;22748;8.426;99.512;2023-03-14T13:17:51;29.02;;;17.00;;
36797;SDS011;22748;8.426;99.512;2023-03-14T13:20:27;28.38;;;17.25;;
36797;SDS011;22748;8.426;99.512;2023-03-14T13:23:00;26.85;;;17.17;;
36797;SDS011;22748;8.426;99.512;2023-03-14T13:28:02;24.77;;;17.15;;
36797;SDS011;22748;8.426;99.512;2023-03-14T13:30:39;26.20;;;16.17;;
36797;SDS011;22748;8.426;99.512;2023-03-14T13:33:14;26.90;;;16.58;;
36797;SDS011;22748;8.426;99.512;2023-03-14T13:35:47;26.15;;;16.23;;
36797;SDS011;22748;8.426;99.512;2023-03-14T13:38:24;24.90;;;16.17;;
36797;SDS011;22748;8.426;99.512;2023-03-14T13:41:05;24.38;;;15.60;;
36797;SDS011;22748;8.426;99.512;2023-03-14T13:43:39;26.98;;;16.08;;
36797;SDS011;22748;8.426;99.512;2023-03-14T13:46:14;25.05;;;16.08;;
36797;SDS011;22748;8.426;99.512;2023-03-14T13:48:48;30.73;;;17.08;;
36797;SDS011;22748;8.426;99.512;2023-03-14T13:51:25;22.83;;;16.13;;
36797;SDS011;22748;8.426;99.512;2023-03-14T13:54:01;25.73;;;16.50;;
36797;SDS011;22748;8.426;99.512;2023-03-14T13:56:31;27.13;;;16.20;;
36797;SDS011;22748;8.426;99.512;2023-03-14T13:59:03;24.83;;;15.57;;
36797;SDS011;22748;8.426;99.512;2023-03-14T14:04:14;25.48;;;15.48;;
36797;SDS011;22748;8.426;99.512;2023-03-14T14:06:50;27.90;;;15.55;;
36797;SDS011;22748;8.426;99.512;2023-03-14T14:09:25;33.40;;;19.98;;
36797;SDS011;22748;8.426;99.512;2023-03-14T14:11:59;38.65;;;23.98;;
36797;SDS011;22748;8.426;99.512;2023-03-14T14:14:33;33.83;;;22.50;;
36797;SDS011;22748;8.426;99.512;2023-03-14T14:17:07;48.42;;;30.75;;
36797;SDS011;22748;8.426;99.512;2023-03-14T14:19:41;83.85;;;52.30;;
36797;SDS011;22748;8.426;99.512;2023-03-14T14:22:17;80.88;;;52.22;;
36797;SDS011;22748;8.426;99.512;2023-03-14T14:24:51;70.60;;;45.85;;
36797;SDS011;22748;8.426;99.512;2023-03-14T14:27:27;62.55;;;39.58;;
36797;SDS011;22748;8.426;99.512;2023-03-14T14:30:02;57.08;;;36.97;;
36797;SDS011;22748;8.426;99.512;2023-03-14T14:32:36;45.92;;;32.80;;
36797;SDS011;22748;8.426;99.512;2023-03-14T14:35:09;48.08;;;31.58;;
36797;SDS011;22748;8.426;99.512;2023-03-14T14:37:53;50.63;;;32.83;;
36797;SDS011;22748;8.426;99.512;2023-03-14T14:40:24;48.63;;;32.55;;
36797;SDS011;22748;8.426;99.512;2023-03-14T14:42:55;45.67;;;29.92;;
36797;SDS011;22748;8.426;99.512;2023-03-14T14:45:33;42.97;;;28.40;;
36797;SDS011;22748;8.426;99.512;2023-03-14T14:48:05;40.85;;;26.80;;
36797;SDS011;22748;8.426;99.512;2023-03-14T14:50:43;40.75;;;26.38;;
36797;SDS011;22748;8.426;99.512;2023-03-14T14:53:22;40.33;;;25.02;;
36797;SDS011;22748;8.426;99.512;2023-03-14T14:55:56;33.60;;;22.52;;
36797;SDS011;22748;8.426;99.512;2023-03-14T14:58:29;34.70;;;22.60;;
36797;SDS011;22748;8.426;99.512;2023-03-14T15:01:05;31.52;;;20.35;;
36797;SDS011;22748;8.426;99.512;2023-03-14T15:03:41;29.70;;;19.00;;
36797;SDS011;22748;8.426;99.512;2023-03-14T15:06:15;27.40;;;18.20;;
36797;SDS011;22748;8.426;99.512;2023-03-14T15:08:50;29.98;;;18.10;;
36797;SDS011;22748;8.426;99.512;2023-03-14T15:11:22;77.43;;;42.45;;
36797;SDS011;22748;8.426;99.512;2023-03-14T15:14:00;82.28;;;44.72;;
36797;SDS011;22748;8.426;99.512;2023-03-14T15:16:34;47.38;;;30.27;;
36797;SDS011;22748;8.426;99.512;2023-03-14T15:19:09;48.55;;;30.92;;
36797;SDS011;22748;8.426;99.512;2023-03-14T15:21:44;55.20;;;32.53;;
36797;SDS011;22748;8.426;99.512;2023-03-14T15:24:22;56.40;;;33.17;;
36797;SDS011;22748;8.426;99.512;2023-03-14T15:26:52;50.90;;;30.10;;
36797;SDS011;22748;8.426;99.512;2023-03-14T15:29:24;37.80;;;26.85;;
36797;SDS011;22748;8.426;99.512;2023-03-14T15:34:25;40.00;;;26.05;;
36797;SDS011;22748;8.426;99.512;2023-03-14T15:36:56;47.95;;;29.13;;
36797;SDS011;22748;8.426;99.512;2023-03-14T15:39:33;41.97;;;28.23;;
36797;SDS011;22748;8.426;99.512;2023-03-14T15:42:06;49.38;;;30.33;;
36797;SDS011;22748;8.426;99.512;2023-03-14T15:44:38;46.25;;;30.60;;
36797;SDS011;22748;8.426;99.512;2023-03-14T15:47:09;45.90;;;30.50;;
36797;SDS011;22748;8.426;99.512;2023-03-14T15:49:41;45.42;;;31.02;;
36797;SDS011;22748;8.426;99.512;2023-03-14T15:52:11;45.67;;;30.00;;
36797;SDS011;22748;8.426;99.512;2023-03-14T15:54:44;42.85;;;28.50;;
36797;SDS011;22748;8.426;99.512;2023-03-14T15:57:20;40.85;;;27.30;;
36797;SDS011;22748;8.426;99.512;2023-03-14T15:59:50;41.20;;;28.73;;
36797;SDS011;22748;8.426;99.512;2023-03-14T16:02:23;46.75;;;31.90;;
36797;SDS011;22748;8.426;99.512;2023-03-14T16:04:53;45.33;;;29.90;;